createdAt,value
2022-12-05T00:00:40.727Z,4.87
2022-12-05T00:03:45.686Z,4.84
2022-12-05T00:06:48.397Z,4.86
2022-12-05T00:09:51.140Z,4.90
2022-12-05T00:12:54.078Z,4.85
2022-12-05T00:15:56.995Z,4.88
2022-12-05T00:19:02.749Z,4.95
2022-12-05T00:22:05.960Z,4.94
2022-12-05T00:25:09.849Z,4.98
2022-12-05T00:28:12.517Z,4.95
2022-12-05T00:31:16.920Z,4.96
2022-12-05T00:34:21.326Z,4.90
2022-12-05T00:37:24.542Z,4.93
2022-12-05T00:40:27.341Z,4.93
2022-12-05T00:43:30.283Z,4.95
2022-12-05T00:46:34.873Z,5.01
2022-12-05T00:49:38.913Z,4.97
2022-12-05T00:52:41.805Z,4.91
2022-12-05T00:55:44.488Z,4.81
2022-12-05T00:58:47.968Z,4.90
2022-12-05T01:01:52.338Z,4.82
2022-12-05T01:04:56.566Z,4.80
2022-12-05T01:07:59.359Z,4.73
2022-12-05T01:11:03.191Z,4.80
2022-12-05T01:14:06.633Z,4.77
2022-12-05T01:17:09.366Z,4.80
2022-12-05T01:20:14.081Z,4.81
2022-12-05T01:23:17.537Z,4.82
2022-12-05T01:26:22.186Z,4.93
2022-12-05T01:29:25.632Z,4.90
2022-12-05T01:32:28.507Z,4.80
2022-12-05T01:35:33.785Z,4.88
2022-12-05T01:38:36.649Z,4.97
2022-12-05T01:41:41.895Z,4.95
2022-12-05T01:45:08.075Z,4.95
2022-12-05T01:48:16.851Z,4.81
2022-12-05T01:51:21.042Z,4.83
2022-12-05T01:54:24.624Z,4.90
2022-12-05T01:57:28.152Z,4.80
2022-12-05T02:00:31.527Z,4.88
2022-12-05T02:03:35.323Z,4.87
2022-12-05T02:06:39.365Z,4.86
2022-12-05T02:09:42.420Z,4.88
2022-12-05T02:12:45.843Z,4.83
2022-12-05T02:15:57.052Z,4.77
2022-12-05T02:19:10.244Z,4.73
2022-12-05T02:22:28.962Z,4.68
2022-12-05T02:26:02.635Z,4.61
2022-12-05T02:29:27.843Z,4.64
2022-12-05T02:32:51.490Z,4.73
2022-12-05T02:36:00.619Z,4.73
2022-12-05T02:39:08.026Z,4.79
2022-12-05T02:42:14.842Z,4.87
2022-12-05T02:45:19.743Z,4.81
2022-12-05T02:48:24.372Z,4.85
2022-12-05T02:51:30.806Z,4.80
2022-12-05T02:54:37.847Z,4.79
2022-12-05T02:57:42.165Z,4.83
2022-12-05T03:00:47.881Z,4.70
2022-12-05T03:03:52.308Z,4.75
2022-12-05T03:06:58.408Z,4.92
2022-12-05T03:10:04.090Z,4.80
2022-12-05T03:13:10.041Z,4.82
2022-12-05T03:16:16.920Z,4.98
2022-12-05T03:19:24.194Z,4.93
2022-12-05T03:22:31.641Z,4.78
2022-12-05T03:25:37.573Z,4.63
2022-12-05T03:28:51.621Z,4.66
2022-12-05T03:31:56.006Z,4.67
2022-12-05T03:35:06.575Z,4.70
2022-12-05T03:38:12.838Z,4.90
2022-12-05T03:41:21.564Z,4.90
2022-12-05T03:44:29.331Z,4.97
2022-12-05T03:47:39.131Z,5.08
2022-12-05T03:50:45.663Z,5.11
2022-12-05T03:53:50.700Z,5.18
2022-12-05T03:56:57.447Z,5.24
2022-12-05T04:00:02.367Z,5.24
2022-12-05T04:03:07.470Z,5.29
2022-12-05T04:06:19.867Z,5.25
2022-12-05T04:09:26.442Z,5.24
2022-12-05T04:12:31.295Z,5.14
2022-12-05T04:15:54.807Z,5.08
2022-12-05T04:19:00.471Z,4.96
2022-12-05T04:22:04.578Z,4.83
2022-12-05T04:25:28.408Z,4.80
2022-12-05T04:28:34.589Z,4.69
2022-12-05T04:31:42.094Z,4.68
2022-12-05T04:34:50.398Z,4.75
2022-12-05T04:37:59.675Z,4.88
2022-12-05T04:41:04.670Z,4.99
2022-12-05T04:44:09.918Z,5.01
2022-12-05T04:47:14.911Z,4.98
2022-12-05T04:50:18.403Z,4.97
2022-12-05T04:53:23.295Z,5.03
2022-12-05T04:56:29.450Z,4.93
2022-12-05T04:59:32.648Z,4.95
2022-12-05T05:02:40.854Z,5.00
2022-12-05T05:05:47.209Z,5.03
2022-12-05T05:08:52.956Z,5.03
2022-12-05T05:11:55.574Z,4.99
2022-12-05T05:14:58.183Z,4.93
2022-12-05T05:18:01.072Z,4.97
2022-12-05T05:21:03.699Z,5.07
2022-12-05T05:24:33.531Z,5.18
2022-12-05T05:27:36.229Z,5.28
2022-12-05T05:30:39.012Z,5.37
2022-12-05T05:33:41.704Z,5.26
2022-12-05T05:36:44.819Z,5.28
2022-12-05T05:39:48.949Z,5.41
2022-12-05T05:42:52.055Z,5.39
2022-12-05T05:45:54.864Z,5.39
2022-12-05T05:48:57.609Z,5.37
2022-12-05T05:52:00.201Z,5.46
2022-12-05T05:55:07.050Z,5.54
2022-12-05T05:58:10.567Z,5.51
2022-12-05T06:01:15.300Z,5.49
2022-12-05T06:04:18.412Z,5.44
2022-12-05T06:07:21.132Z,5.39
2022-12-05T06:10:25.806Z,5.37
2022-12-05T06:13:28.767Z,5.34
2022-12-05T06:16:32.805Z,5.34
2022-12-05T06:19:35.538Z,5.41
2022-12-05T06:22:38.283Z,5.32
2022-12-05T06:25:48.638Z,5.29
2022-12-05T06:28:51.594Z,5.21
2022-12-05T06:31:54.400Z,5.20
2022-12-05T06:34:57.284Z,5.32
2022-12-05T06:38:00.262Z,5.37
2022-12-05T06:41:07.554Z,5.43
2022-12-05T06:44:11.498Z,5.39
2022-12-05T06:47:15.582Z,5.52
2022-12-05T06:50:18.662Z,5.61
2022-12-05T06:53:21.687Z,5.64
2022-12-05T06:56:26.213Z,5.70
2022-12-05T06:59:28.794Z,5.69
2022-12-05T07:02:30.639Z,5.69
2022-12-05T07:05:34.187Z,5.73
2022-12-05T07:08:37.204Z,5.75
2022-12-05T07:11:41.475Z,5.83
2022-12-05T07:14:48.755Z,5.91
2022-12-05T07:17:52.611Z,6.00
2022-12-05T07:21:14.523Z,6.10
2022-12-05T07:24:17.728Z,6.10
2022-12-05T07:27:26.887Z,6.12
2022-12-05T07:30:30.615Z,6.17
2022-12-05T07:33:33.369Z,6.36
2022-12-05T07:36:36.215Z,6.41
2022-12-05T07:39:40.459Z,6.51
2022-12-05T07:42:44.882Z,6.57
2022-12-05T07:45:48.481Z,6.77
2022-12-05T07:48:51.767Z,6.95
2022-12-05T07:51:55.322Z,6.82
2022-12-05T07:54:59.115Z,7.07
2022-12-05T07:58:02.915Z,7.22
2022-12-05T08:01:09.520Z,7.02
2022-12-05T08:04:15.538Z,7.14
2022-12-05T08:07:18.899Z,7.41
2022-12-05T08:10:21.592Z,7.42
2022-12-05T08:13:25.632Z,7.41
2022-12-05T08:16:31.009Z,7.57
2022-12-05T08:19:33.675Z,7.65
2022-12-05T08:22:36.420Z,7.60
2022-12-05T08:25:39.128Z,7.44
2022-12-05T08:28:44.240Z,7.47
2022-12-05T08:31:49.368Z,7.44
2022-12-05T08:34:52.122Z,7.48
2022-12-05T08:37:54.837Z,7.30
2022-12-05T08:40:57.463Z,7.35
2022-12-05T08:44:04.089Z,7.38
2022-12-05T08:47:06.811Z,7.39
2022-12-05T08:50:10.452Z,7.44
2022-12-05T08:53:13.338Z,7.49
2022-12-05T08:56:16.252Z,7.50
2022-12-05T08:59:22.380Z,7.55
2022-12-05T09:02:25.182Z,7.63
2022-12-05T09:05:29.573Z,7.71
2022-12-05T09:08:32.439Z,7.88
2022-12-05T09:11:38.392Z,7.91
2022-12-05T09:14:42.602Z,7.95
2022-12-05T09:17:45.701Z,8.07
2022-12-05T09:20:49.105Z,8.00
2022-12-05T09:23:52.879Z,8.00
2022-12-05T09:26:55.626Z,8.13
2022-12-05T09:29:59.796Z,8.31
2022-12-05T09:33:02.616Z,8.47
2022-12-05T09:36:06.395Z,8.62
2022-12-05T09:39:09.207Z,8.66
2022-12-05T09:42:36.356Z,8.82
2022-12-05T09:45:44.943Z,8.77
2022-12-05T09:48:48.642Z,8.66
2022-12-05T09:51:55.184Z,8.55
2022-12-05T09:55:00.103Z,8.50
2022-12-05T09:58:05.425Z,8.45
2022-12-05T10:01:32.075Z,8.34
2022-12-05T10:04:57.085Z,8.31
2022-12-05T10:08:08.326Z,8.30
2022-12-05T10:11:15.274Z,8.38
2022-12-05T10:14:27.915Z,8.50
2022-12-05T10:17:34.805Z,8.54
2022-12-05T10:20:43.131Z,8.49
2022-12-05T10:23:58.791Z,8.51
2022-12-05T10:27:04.319Z,8.66
2022-12-05T10:30:14.760Z,8.81
2022-12-05T10:33:22.827Z,9.01
2022-12-05T10:36:26.588Z,9.40
2022-12-05T10:39:29.049Z,10.05
2022-12-05T10:42:34.934Z,10.44
2022-12-05T10:45:41.160Z,10.47
2022-12-05T10:48:45.373Z,10.74
2022-12-05T10:51:49.065Z,11.11
2022-12-05T10:54:52.895Z,11.26
2022-12-05T10:58:16.828Z,11.34
2022-12-05T11:01:20.683Z,11.48
2022-12-05T11:04:28.170Z,11.43
2022-12-05T11:07:33.004Z,11.16
2022-12-05T11:10:39.039Z,11.27
2022-12-05T11:13:52.880Z,11.16
2022-12-05T11:16:58.370Z,10.97
2022-12-05T11:20:03.452Z,10.81
2022-12-05T11:23:27.649Z,10.93
2022-12-05T11:26:35.577Z,11.02
2022-12-05T11:29:39.742Z,11.02
2022-12-05T11:32:42.593Z,11.10
2022-12-05T11:35:47.242Z,11.18
2022-12-05T11:38:50.281Z,11.26
2022-12-05T11:42:10.743Z,11.43
2022-12-05T11:45:30.200Z,12.02
2022-12-05T11:49:00.780Z,12.52
2022-12-05T11:52:10.650Z,12.63
2022-12-05T11:55:16.581Z,12.23
2022-12-05T11:58:44.391Z,12.11
2022-12-05T12:01:52.225Z,11.89
2022-12-05T12:05:01.383Z,11.73
2022-12-05T12:08:16.796Z,11.79
2022-12-05T12:11:24.423Z,11.46
2022-12-05T12:14:34.783Z,11.25
2022-12-05T12:17:45.897Z,11.10
2022-12-05T12:21:01.625Z,10.74
2022-12-05T12:24:13.626Z,10.43
2022-12-05T12:27:23.427Z,10.30
2022-12-05T12:30:30.205Z,10.18
2022-12-05T12:33:36.003Z,10.38
2022-12-05T12:36:46.437Z,10.55
2022-12-05T12:39:53.484Z,10.58
2022-12-05T12:43:03.467Z,10.79
2022-12-05T12:46:27.571Z,11.04
2022-12-05T12:49:35.744Z,11.10
2022-12-05T12:52:55.006Z,11.18
2022-12-05T12:56:03.330Z,10.68
2022-12-05T12:59:18.380Z,10.53
2022-12-05T13:02:25.915Z,10.66
2022-12-05T13:05:34.581Z,10.66
2022-12-05T13:08:42.048Z,10.59
2022-12-05T13:11:47.701Z,10.52
2022-12-05T13:14:53.755Z,10.67
2022-12-05T13:17:56.766Z,10.12
2022-12-05T13:21:01.294Z,10.01
2022-12-05T13:24:04.247Z,9.90
2022-12-05T13:27:10.255Z,9.86
2022-12-05T13:30:19.111Z,9.63
2022-12-05T13:33:25.466Z,9.51
2022-12-05T13:36:45.764Z,9.38
2022-12-05T13:40:09.300Z,9.32
2022-12-05T13:43:16.210Z,9.24
2022-12-05T13:46:24.043Z,9.05
2022-12-05T13:49:31.526Z,8.98
2022-12-05T13:52:43.102Z,8.90
2022-12-05T13:55:56.851Z,9.28
2022-12-05T13:59:01.687Z,14.20
2022-12-05T14:02:47.194Z,12.92
2022-12-05T14:05:53.265Z,10.96
2022-12-05T14:08:55.991Z,10.08
2022-12-05T14:12:45.684Z,9.71
2022-12-05T14:15:51.531Z,9.30
2022-12-05T14:18:58.812Z,9.19
2022-12-05T14:22:07.788Z,9.07
2022-12-05T14:25:19.048Z,8.96
2022-12-05T14:28:40.215Z,8.82
2022-12-05T14:31:53.003Z,8.77
2022-12-05T14:34:59.181Z,8.63
2022-12-05T14:38:04.523Z,8.51
2022-12-05T14:41:33.221Z,8.54
2022-12-05T14:44:37.501Z,8.51
2022-12-05T14:47:42.110Z,8.39
2022-12-05T14:50:47.580Z,8.34
2022-12-05T14:53:51.147Z,8.39
2022-12-05T14:57:03.107Z,8.39
2022-12-05T15:00:08.136Z,8.31
2022-12-05T15:03:22.629Z,8.33
2022-12-05T15:06:26.958Z,8.28
2022-12-05T15:09:39.013Z,8.17
2022-12-05T15:12:43.483Z,8.25
2022-12-05T15:15:49.037Z,8.14
2022-12-05T15:18:54.823Z,8.00
2022-12-05T15:21:59.429Z,7.60
2022-12-05T15:25:15.971Z,7.22
2022-12-05T15:28:20.390Z,6.86
2022-12-05T15:31:23.365Z,6.65
2022-12-05T15:34:31.147Z,6.51
2022-12-05T15:37:36.272Z,6.44
2022-12-05T15:40:39.764Z,6.37
2022-12-05T15:43:43.439Z,6.35
2022-12-05T15:46:46.523Z,6.30
2022-12-05T15:49:51.056Z,6.37
2022-12-05T15:52:56.267Z,6.37
2022-12-05T15:56:01.398Z,6.24
2022-12-05T15:59:06.963Z,6.15
2022-12-05T16:02:15.865Z,6.17
2022-12-05T16:05:23.901Z,6.23
2022-12-05T16:08:31.184Z,6.34
2022-12-05T16:11:33.991Z,6.57
2022-12-05T16:18:04.386Z,6.79
2022-12-05T16:21:38.601Z,6.77
2022-12-05T16:24:45.220Z,6.82
2022-12-05T16:28:02.896Z,6.81
2022-12-05T16:31:06.867Z,6.78
2022-12-05T16:34:16.429Z,6.80
2022-12-05T16:37:24.351Z,6.80
2022-12-05T16:40:27.748Z,6.78
2022-12-05T16:43:44.901Z,6.81
2022-12-05T16:46:48.178Z,6.83
2022-12-05T16:49:51.188Z,6.83
2022-12-05T16:53:04.003Z,6.82
2022-12-05T16:56:07.647Z,6.85
2022-12-05T16:59:18.020Z,6.84
2022-12-05T17:02:20.924Z,6.83
2022-12-05T17:05:23.852Z,6.85
2022-12-05T17:08:28.529Z,6.87
2022-12-05T17:11:33.989Z,6.82
2022-12-05T17:14:37.315Z,6.91
2022-12-05T17:17:40.061Z,6.97
2022-12-05T17:20:43.746Z,6.98
2022-12-05T17:23:48.511Z,6.99
2022-12-05T17:26:51.480Z,7.05
2022-12-05T17:29:54.787Z,7.05
2022-12-05T17:32:58.165Z,7.00
2022-12-05T17:36:01.214Z,6.98
2022-12-05T17:39:05.201Z,7.04
2022-12-05T17:42:08.435Z,7.08
2022-12-05T17:45:14.363Z,7.03
2022-12-05T17:48:17.546Z,6.95
2022-12-05T17:51:21.209Z,6.89
2022-12-05T17:54:26.645Z,6.86
2022-12-05T17:57:29.520Z,6.84
2022-12-05T18:00:32.906Z,6.80
2022-12-05T18:03:36.031Z,6.77
2022-12-05T18:06:39.447Z,6.74
2022-12-05T18:09:44.467Z,6.71
2022-12-05T18:12:47.286Z,6.73
2022-12-05T18:15:50.216Z,6.64
2022-12-05T18:18:52.842Z,6.58
2022-12-05T18:21:56.115Z,6.40
2022-12-05T18:25:02.275Z,6.31
2022-12-05T18:28:05.332Z,6.22
2022-12-05T18:31:10.154Z,6.16
2022-12-05T18:34:13.402Z,6.15
2022-12-05T18:37:16.765Z,6.13
2022-12-05T18:40:21.182Z,6.13
2022-12-05T18:43:24.053Z,6.18
2022-12-05T18:46:26.988Z,6.17
2022-12-05T18:49:30.283Z,6.12
2022-12-05T18:52:33.240Z,6.09
2022-12-05T18:55:58.426Z,5.98
2022-12-05T18:59:02.938Z,5.81
2022-12-05T19:02:05.958Z,5.83
2022-12-05T19:05:09.370Z,5.75
2022-12-05T19:08:12.331Z,5.75
2022-12-05T19:11:19.059Z,5.88
2022-12-05T19:14:22.384Z,5.99
2022-12-05T19:17:25.181Z,6.06
2022-12-05T19:20:27.752Z,6.15
2022-12-05T19:23:34.191Z,6.17
2022-12-05T19:26:38.395Z,6.14
2022-12-05T19:29:40.976Z,6.03
2022-12-05T19:32:44.153Z,6.02
2022-12-05T19:35:47.158Z,6.13
2022-12-05T19:38:51.334Z,6.17
2022-12-05T19:41:57.570Z,6.22
2022-12-05T19:45:06.163Z,6.23
2022-12-05T19:48:11.063Z,6.27
2022-12-05T19:51:14.096Z,6.30
2022-12-05T19:54:17.976Z,6.31
2022-12-05T19:57:22.784Z,6.34
2022-12-05T20:00:25.472Z,6.38
2022-12-05T20:03:28.266Z,6.42
2022-12-05T20:06:32.076Z,6.44
2022-12-05T20:09:34.828Z,6.44
2022-12-05T20:12:38.842Z,6.43
2022-12-05T20:15:41.406Z,6.47
2022-12-05T20:18:44.080Z,6.50
2022-12-05T20:21:46.898Z,6.44
2022-12-05T20:24:49.762Z,6.47
2022-12-05T20:27:53.772Z,6.48
2022-12-05T20:31:05.774Z,6.51
2022-12-05T20:34:11.446Z,6.54
2022-12-05T20:37:14.028Z,6.54
2022-12-05T20:40:17.009Z,6.57
2022-12-05T20:43:22.407Z,6.60
2022-12-05T20:46:26.075Z,6.56
2022-12-05T20:49:29.334Z,6.51
2022-12-05T20:52:32.053Z,6.46
2022-12-05T20:55:35.172Z,6.41
2022-12-05T20:58:39.946Z,6.39
2022-12-05T21:01:42.771Z,6.37
2022-12-05T21:04:46.021Z,6.38
2022-12-05T21:07:49.149Z,6.39
2022-12-05T21:10:52.709Z,6.34
2022-12-05T21:13:58.330Z,6.40
2022-12-05T21:17:01.404Z,6.48
2022-12-05T21:20:05.164Z,6.55
2022-12-05T21:23:07.884Z,6.56
2022-12-05T21:26:13.971Z,6.58
2022-12-05T21:29:18.594Z,6.62
2022-12-05T21:32:21.228Z,6.67
2022-12-05T21:35:23.955Z,6.66
2022-12-05T21:38:27.204Z,6.65
2022-12-05T21:41:29.835Z,6.62
2022-12-05T21:44:33.918Z,6.58
2022-12-05T21:47:36.744Z,6.45
2022-12-05T21:50:39.540Z,6.42
2022-12-05T21:53:42.294Z,6.41
2022-12-05T21:56:45.351Z,6.44
2022-12-05T21:59:49.483Z,6.40
2022-12-05T22:02:52.219Z,6.39
2022-12-05T22:06:01.455Z,6.36
2022-12-05T22:09:04.747Z,6.32
2022-12-05T22:12:07.322Z,6.32
2022-12-05T22:15:12.964Z,6.31
2022-12-05T22:18:15.703Z,6.29
2022-12-05T22:21:20.175Z,6.29
2022-12-05T22:24:23.746Z,6.28
2022-12-05T22:27:26.564Z,6.28
2022-12-05T22:30:32.147Z,6.28
2022-12-05T22:33:36.920Z,6.26
2022-12-05T22:36:39.598Z,6.23
2022-12-05T22:39:42.511Z,6.20
2022-12-05T22:42:45.331Z,6.19
2022-12-05T22:45:49.501Z,6.18
2022-12-05T22:48:53.443Z,6.22
2022-12-05T22:51:56.313Z,6.17
2022-12-05T22:54:59.271Z,6.13
2022-12-05T22:58:03.789Z,6.07
2022-12-05T23:01:12.922Z,5.95
2022-12-05T23:04:16.095Z,5.81
2022-12-05T23:07:19.465Z,5.79
2022-12-05T23:10:23.093Z,5.85
2022-12-05T23:13:26.011Z,5.82
2022-12-05T23:16:32.082Z,5.91
2022-12-05T23:19:35.007Z,6.02
2022-12-05T23:22:38.253Z,6.11
2022-12-05T23:25:43.532Z,6.09
2022-12-05T23:28:46.791Z,6.10
2022-12-05T23:31:51.661Z,6.11
2022-12-05T23:34:55.547Z,6.11
2022-12-05T23:37:59.177Z,6.09
2022-12-05T23:41:02.942Z,6.11
2022-12-05T23:44:05.703Z,6.11
2022-12-05T23:47:10.256Z,6.08
2022-12-05T23:50:13.228Z,6.08
2022-12-05T23:53:16.143Z,6.11
2022-12-05T23:56:20.415Z,6.12
2022-12-05T23:59:23.400Z,6.13
